Time;durP1;ratioP1;P1;durP2;ratioP2;P2;SDS_P1;SDS_P2;PMS_P1;PMS_P2;Temp;Humidity;BMP_temperature;BMP_pressure;BME280_temperature;BME280_humidity;BME280_pressure;Samples;Min_cycle;Max_cycle;Signal;HPM_P1;HPM_P2
2023/02/16 00:01:41;;;;;;;30.27;10.63;;;;;;;;;;5032453;28;20441;-67
2023/02/16 00:04:21;;;;;;;31.13;10.93;;;;;;;;;;5033142;28;20053;-68
2023/02/16 00:06:47;;;;;;;34.53;11.10;;;;;;;;;;5043171;28;20022;-68
2023/02/16 00:09:12;;;;;;;28.23;9.95;;;;;;;;;;5033569;28;20488;-68
2023/02/16 00:14:22;;;;;;;32.00;10.98;;;;;;;;;;5024920;28;20109;-68
2023/02/16 00:16:47;;;;;;;30.58;10.45;;;;;;;;;;5032524;28;20120;-67
2023/02/16 00:19:15;;;;;;;29.02;10.35;;;;;;;;;;5032309;28;20092;-67
2023/02/16 00:21:40;;;;;;;30.67;11.30;;;;;;;;;;5029676;28;20407;-67
2023/02/16 00:24:05;;;;;;;29.33;10.05;;;;;;;;;;5031078;28;20064;-68
2023/02/16 00:26:32;;;;;;;32.90;10.97;;;;;;;;;;5030618;28;20025;-67
2023/02/16 00:28:58;;;;;;;;;;;;;;;;;;5028120;28;20048;-68
2023/02/16 00:31:26;;;;;;;31.77;10.90;;;;;;;;;;5029956;28;20361;-65
2023/02/16 00:33:51;;;;;;;33.10;11.55;;;;;;;;;;5028967;28;20029;-66
2023/02/16 00:36:16;;;;;;;35.00;11.40;;;;;;;;;;5027025;28;20083;-66
2023/02/16 00:38:42;;;;;;;33.45;10.73;;;;;;;;;;5029622;28;20507;-66
2023/02/16 00:41:49;;;;;;;28.17;10.47;;;;;;;;;;5024370;28;20045;-67
2023/02/16 00:43:58;;;;;;;27.90;9.50;;;;;;;;;;5022684;28;20025;-67
2023/02/16 00:46:24;;;;;;;28.35;10.05;;;;;;;;;;5028607;28;20044;-66
2023/02/16 00:48:49;;;;;;;29.05;10.40;;;;;;;;;;5027633;28;20035;-66
2023/02/16 00:51:14;;;;;;;31.50;10.73;;;;;;;;;;5021861;28;20025;-67
2023/02/16 00:53:39;;;;;;;32.85;11.55;;;;;;;;;;5022961;28;20029;-67
2023/02/16 00:56:04;;;;;;;31.05;10.65;;;;;;;;;;5021552;28;20055;-67
2023/02/16 00:58:29;;;;;;;29.70;10.83;;;;;;;;;;5024300;28;20398;-67
2023/02/16 01:01:01;;;;;;;33.57;11.47;;;;;;;;;;5024919;28;20021;-66
2023/02/16 01:03:27;;;;;;;30.92;10.57;;;;;;;;;;5019786;28;20473;-68
2023/02/16 01:11:06;;;;;;;31.98;10.70;;;;;;;;;;5020696;28;20025;-67
2023/02/16 01:11:22;;;;;;;33.08;10.73;;;;;;;;;;5023172;28;20028;-68
2023/02/16 01:13:48;;;;;;;31.95;10.63;;;;;;;;;;5036372;28;20100;-68
2023/02/16 01:16:18;;;;;;;29.20;10.35;;;;;;;;;;5023917;28;20033;-68
2023/02/16 01:18:43;;;;;;;30.02;10.43;;;;;;;;;;5029631;28;20017;-69
2023/02/16 01:21:08;;;;;;;31.83;10.70;;;;;;;;;;5030610;28;20145;-66
2023/02/16 01:23:34;;;;;;;31.87;10.90;;;;;;;;;;5031764;28;20017;-68
2023/02/16 01:25:59;;;;;;;31.57;10.60;;;;;;;;;;5021404;28;20029;-69
2023/02/16 01:28:25;;;;;;;29.50;10.73;;;;;;;;;;5019185;28;20022;-68
2023/02/16 01:30:50;;;;;;;30.45;11.18;;;;;;;;;;5015728;28;20366;-66
2023/02/16 01:33:15;;;;;;;33.10;10.88;;;;;;;;;;5018417;28;20507;-67
2023/02/16 01:35:41;;;;;;;32.03;10.17;;;;;;;;;;5018217;28;20033;-69
2023/02/16 01:38:06;;;;;;;26.80;9.73;;;;;;;;;;5024277;28;20054;-67
2023/02/16 01:40:31;;;;;;;27.33;10.10;;;;;;;;;;5028962;28;20094;-66
2023/02/16 01:43:00;;;;;;;31.03;10.80;;;;;;;;;;5026447;28;20021;-66
2023/02/16 01:45:33;;;;;;;31.48;9.80;;;;;;;;;;5031934;28;20098;-66
2023/02/16 01:48:03;;;;;;;29.42;10.65;;;;;;;;;;5028695;28;20022;-68
2023/02/16 01:50:36;;;;;;;32.55;10.85;;;;;;;;;;5035960;28;20017;-67
2023/02/16 01:53:05;;;;;;;31.25;10.25;;;;;;;;;;5043054;28;20032;-67
2023/02/16 01:55:33;;;;;;;29.30;10.05;;;;;;;;;;5032336;28;20585;-67
2023/02/16 01:58:17;;;;;;;29.83;9.70;;;;;;;;;;5025372;28;20057;-67
2023/02/16 02:00:48;;;;;;;29.23;10.27;;;;;;;;;;5016659;28;20025;-68
2023/02/16 02:06:02;;;;;;;29.55;9.73;;;;;;;;;;5025206;28;20048;-67
2023/02/16 02:08:27;;;;;;;28.03;10.20;;;;;;;;;;5036130;28;20029;-67
2023/02/16 02:11:08;;;;;;;30.05;10.38;;;;;;;;;;5028480;28;20080;-66
2023/02/16 02:13:46;;;;;;;27.90;10.40;;;;;;;;;;5028842;28;20025;-66
2023/02/16 02:16:14;;;;;;;26.58;9.63;;;;;;;;;;5023289;28;20020;-66
2023/02/16 02:18:40;;;;;;;29.55;10.60;;;;;;;;;;5023903;28;20040;-68
2023/02/16 02:24:07;;;;;;;30.58;9.90;;;;;;;;;;5028272;28;20392;-67
2023/02/16 02:26:51;;;;;;;29.05;9.88;;;;;;;;;;5034531;28;20408;-68
2023/02/16 02:29:26;;;;;;;28.15;9.55;;;;;;;;;;5029681;28;20974;-68
2023/02/16 02:31:51;;;;;;;28.98;9.40;;;;;;;;;;5022507;28;20029;-68
2023/02/16 02:34:31;;;;;;;24.55;8.82;;;;;;;;;;5025120;28;20083;-68
2023/02/16 02:37:05;;;;;;;27.90;8.88;;;;;;;;;;5025475;28;20033;-66
2023/02/16 02:39:34;;;;;;;26.35;9.10;;;;;;;;;;5021464;28;20432;-68
2023/02/16 02:42:12;;;;;;;25.52;8.75;;;;;;;;;;5028138;28;20075;-68
2023/02/16 02:45:03;;;;;;;25.67;8.70;;;;;;;;;;5020465;28;20037;-69
2023/02/16 02:47:38;;;;;;;26.92;9.02;;;;;;;;;;5027894;28;20032;-65
2023/02/16 02:50:23;;;;;;;26.15;9.00;;;;;;;;;;5027341;28;20028;-66
2023/02/16 02:52:48;;;;;;;28.05;9.57;;;;;;;;;;5028180;28;20028;-65
2023/02/16 03:00:46;;;;;;;;;;;;;;;;;;5025591;28;20029;-68
2023/02/16 03:03:31;;;;;;;26.40;9.20;;;;;;;;;;5016673;28;20329;-68
2023/02/16 03:06:12;;;;;;;27.13;8.82;;;;;;;;;;5007580;28;20021;-66
2023/02/16 03:08:38;;;;;;;25.17;7.95;;;;;;;;;;5018034;28;20025;-68
2023/02/16 03:13:54;;;;;;;25.90;9.63;;;;;;;;;;5028359;28;20027;-69
2023/02/16 03:16:22;;;;;;;29.02;9.20;;;;;;;;;;5023508;28;20033;-68
2023/02/16 03:29:48;;;;;;;;;;;;;;;;;;5024616;28;20037;-67
2023/02/16 03:32:14;;;;;;;27.48;8.45;;;;;;;;;;5021435;28;19909;-67
2023/02/16 03:34:39;;;;;;;25.98;8.43;;;;;;;;;;5022816;28;20104;-68
2023/02/16 03:37:04;;;;;;;26.70;8.40;;;;;;;;;;5023853;28;20061;-67
2023/02/16 03:39:30;;;;;;;23.83;8.48;;;;;;;;;;5030271;28;20035;-69
2023/02/16 03:41:56;;;;;;;23.90;8.38;;;;;;;;;;5028592;28;20025;-66
2023/02/16 03:44:21;;;;;;;28.10;8.85;;;;;;;;;;5030086;28;20033;-66
2023/02/16 03:46:48;;;;;;;23.83;8.65;;;;;;;;;;5025796;28;20026;-67
2023/02/16 03:49:13;;;;;;;27.38;8.95;;;;;;;;;;5031147;28;20033;-66
2023/02/16 03:51:39;;;;;;;23.85;8.80;;;;;;;;;;5029130;28;20037;-67
2023/02/16 03:54:04;;;;;;;25.50;8.95;;;;;;;;;;5028682;28;20217;-67
2023/02/16 03:56:29;;;;;;;23.08;8.68;;;;;;;;;;5029770;28;20033;-67
2023/02/16 03:58:54;;;;;;;27.20;9.35;;;;;;;;;;5029468;28;20106;-67
2023/02/16 04:01:19;;;;;;;26.27;8.82;;;;;;;;;;5030892;28;20022;-67
2023/02/16 04:03:44;;;;;;;24.63;8.68;;;;;;;;;;5030626;28;20030;-67
2023/02/16 04:06:09;;;;;;;26.63;8.30;;;;;;;;;;5028784;28;20120;-67
2023/02/16 04:08:35;;;;;;;27.63;9.03;;;;;;;;;;5018993;28;20047;-67
2023/02/16 04:12:34;;;;;;;26.05;8.98;;;;;;;;;;5021751;28;20401;-67
2023/02/16 04:13:45;;;;;;;24.23;8.43;;;;;;;;;;5025130;28;20029;-67
2023/02/16 04:16:10;;;;;;;26.67;8.80;;;;;;;;;;5027212;28;20040;-67
2023/02/16 04:18:35;;;;;;;26.90;8.18;;;;;;;;;;5031082;28;20075;-68
2023/02/16 04:21:00;;;;;;;27.67;9.20;;;;;;;;;;5032585;28;20009;-67
2023/02/16 04:23:26;;;;;;;28.27;9.23;;;;;;;;;;5027570;28;20056;-67
2023/02/16 04:25:51;;;;;;;24.25;8.77;;;;;;;;;;5027807;28;20021;-69
2023/02/16 04:28:16;;;;;;;32.00;9.40;;;;;;;;;;5027975;28;20503;-68
2023/02/16 04:30:41;;;;;;;30.40;10.75;;;;;;;;;;5029802;28;20583;-68
2023/02/16 04:33:06;;;;;;;30.63;10.52;;;;;;;;;;5022109;28;20022;-68
2023/02/16 04:35:31;;;;;;;25.10;8.90;;;;;;;;;;5029987;28;20418;-68
2023/02/16 04:37:56;;;;;;;27.38;9.57;;;;;;;;;;5031283;28;20083;-67
2023/02/16 04:40:22;;;;;;;29.40;9.95;;;;;;;;;;5027160;28;20026;-67
2023/02/16 04:42:47;;;;;;;25.75;8.90;;;;;;;;;;5025045;28;20493;-68
2023/02/16 04:45:12;;;;;;;29.20;9.63;;;;;;;;;;5029691;28;20102;-68
2023/02/16 04:47:37;;;;;;;29.33;9.02;;;;;;;;;;5030775;28;20412;-68
2023/02/16 04:50:03;;;;;;;30.57;10.23;;;;;;;;;;5030968;28;20489;-69
2023/02/16 04:52:28;;;;;;;28.33;9.30;;;;;;;;;;5031275;28;20021;-67
2023/02/16 04:54:53;;;;;;;28.33;9.77;;;;;;;;;;5034758;28;20108;-68
2023/02/16 04:57:21;;;;;;;28.27;9.05;;;;;;;;;;5033074;28;20025;-68
2023/02/16 04:59:46;;;;;;;28.85;10.02;;;;;;;;;;5042276;28;20029;-68
2023/02/16 05:02:11;;;;;;;26.63;9.43;;;;;;;;;;5044294;28;20009;-69
2023/02/16 05:04:36;;;;;;;29.73;8.82;;;;;;;;;;5043015;28;20491;-69
2023/02/16 05:07:01;;;;;;;29.90;10.13;;;;;;;;;;5034407;28;20091;-68
2023/02/16 05:09:27;;;;;;;30.63;9.68;;;;;;;;;;5029805;28;20100;-69
2023/02/16 05:14:41;;;;;;;28.77;9.40;;;;;;;;;;5029483;28;20036;-69
2023/02/16 05:17:08;;;;;;;30.20;9.60;;;;;;;;;;5024760;28;20029;-68
2023/02/16 05:19:33;;;;;;;32.58;10.18;;;;;;;;;;5030442;28;20032;-67
2023/02/16 05:21:58;;;;;;;28.95;9.68;;;;;;;;;;5028678;28;20392;-68
2023/02/16 05:24:23;;;;;;;29.53;9.40;;;;;;;;;;5023357;28;20025;-68
2023/02/16 05:26:48;;;;;;;31.55;9.82;;;;;;;;;;5027709;28;20094;-68
2023/02/16 05:29:13;;;;;;;27.73;9.63;;;;;;;;;;5030304;28;20021;-67
2023/02/16 05:31:38;;;;;;;27.08;8.93;;;;;;;;;;5030047;28;20025;-68
2023/02/16 05:34:04;;;;;;;29.23;9.35;;;;;;;;;;5030795;28;20127;-67
2023/02/16 05:36:29;;;;;;;28.43;9.30;;;;;;;;;;5042142;28;20047;-67
2023/02/16 05:38:54;;;;;;;29.35;9.00;;;;;;;;;;5026697;28;20112;-68
2023/02/16 05:41:22;;;;;;;30.40;8.93;;;;;;;;;;5029380;28;20032;-67
2023/02/16 05:44:00;;;;;;;29.30;9.75;;;;;;;;;;5029701;28;20117;-68
2023/02/16 05:46:26;;;;;;;28.98;9.50;;;;;;;;;;5037740;28;20478;-67
2023/02/16 05:48:51;;;;;;;32.22;10.23;;;;;;;;;;5031275;28;20080;-67
2023/02/16 05:51:17;;;;;;;27.00;9.80;;;;;;;;;;5028003;28;20025;-67
2023/02/16 05:53:42;;;;;;;27.73;9.02;;;;;;;;;;5030913;28;20112;-67
2023/02/16 05:56:08;;;;;;;26.87;9.40;;;;;;;;;;5026988;28;20033;-67
2023/02/16 05:58:33;;;;;;;34.70;10.23;;;;;;;;;;5031591;28;20060;-67
2023/02/16 06:00:58;;;;;;;33.45;10.15;;;;;;;;;;5032980;28;20064;-67
2023/02/16 06:03:24;;;;;;;30.53;9.47;;;;;;;;;;5028776;28;20075;-67
2023/02/16 06:05:56;;;;;;;31.25;10.30;;;;;;;;;;5021522;28;20048;-67
2023/02/16 06:08:21;;;;;;;25.58;9.20;;;;;;;;;;5022801;28;20024;-67
2023/02/16 06:10:48;;;;;;;33.50;10.57;;;;;;;;;;5030432;28;20014;-68
2023/02/16 06:13:14;;;;;;;31.70;10.40;;;;;;;;;;5025272;28;20484;-68
2023/02/16 06:15:39;;;;;;;33.30;10.10;;;;;;;;;;5020005;28;20025;-68
2023/02/16 06:18:04;;;;;;;29.98;10.07;;;;;;;;;;5025154;28;20029;-68
2023/02/16 06:20:29;;;;;;;30.98;10.05;;;;;;;;;;5022824;28;20025;-67
2023/02/16 06:22:54;;;;;;;31.70;10.77;;;;;;;;;;5017959;28;20646;-67
2023/02/16 06:25:19;;;;;;;27.57;9.40;;;;;;;;;;5011946;28;20043;-67
2023/02/16 06:27:45;;;;;;;33.60;10.55;;;;;;;;;;5017706;28;20632;-68
2023/02/16 06:30:11;;;;;;;32.07;10.40;;;;;;;;;;5020622;28;20049;-67
2023/02/16 06:32:36;;;;;;;30.08;10.45;;;;;;;;;;5023122;28;20384;-67
2023/02/16 06:35:01;;;;;;;34.70;10.77;;;;;;;;;;5017956;28;20025;-67
2023/02/16 06:37:26;;;;;;;32.85;10.38;;;;;;;;;;5018481;28;20056;-68
2023/02/16 06:39:51;;;;;;;32.53;10.15;;;;;;;;;;5021145;28;20048;-69
2023/02/16 06:42:17;;;;;;;35.40;10.17;;;;;;;;;;5010090;28;20250;-67
2023/02/16 06:44:43;;;;;;;34.23;9.93;;;;;;;;;;5011514;28;20025;-68
2023/02/16 06:47:08;;;;;;;34.08;9.85;;;;;;;;;;5017851;28;20028;-66
2023/02/16 06:49:33;;;;;;;31.87;10.03;;;;;;;;;;5021380;28;20772;-68
2023/02/16 06:51:58;;;;;;;34.58;11.77;;;;;;;;;;5010707;28;21275;-67
2023/02/16 06:54:23;;;;;;;33.43;10.00;;;;;;;;;;5013292;28;20393;-66
2023/02/16 06:56:48;;;;;;;30.15;10.45;;;;;;;;;;5013109;28;20065;-66
2023/02/16 06:59:14;;;;;;;31.85;10.18;;;;;;;;;;5017368;28;20030;-67
2023/02/16 07:01:39;;;;;;;31.63;10.45;;;;;;;;;;5018154;28;20040;-66
2023/02/16 07:04:04;;;;;;;34.07;10.77;;;;;;;;;;5037890;28;20168;-67
2023/02/16 07:06:29;;;;;;;33.00;10.05;;;;;;;;;;5019822;28;20030;-67
2023/02/16 07:08:55;;;;;;;32.28;10.20;;;;;;;;;;5017830;28;20021;-66
2023/02/16 07:11:20;;;;;;;31.88;9.98;;;;;;;;;;5020313;28;20025;-67
2023/02/16 07:13:46;;;;;;;32.55;10.52;;;;;;;;;;5019787;28;20102;-67
2023/02/16 07:16:11;;;;;;;31.23;10.20;;;;;;;;;;5004026;28;20033;-67
2023/02/16 07:18:37;;;;;;;35.50;10.40;;;;;;;;;;5001653;28;20025;-66
2023/02/16 07:21:02;;;;;;;32.15;10.75;;;;;;;;;;5020355;28;20075;-66
2023/02/16 07:23:27;;;;;;;30.17;9.87;;;;;;;;;;5008922;28;20040;-67
2023/02/16 07:25:52;;;;;;;31.53;10.47;;;;;;;;;;5016080;28;20100;-67
2023/02/16 07:28:18;;;;;;;33.93;10.67;;;;;;;;;;5029410;28;20022;-66
2023/02/16 07:30:43;;;;;;;29.00;9.93;;;;;;;;;;5021307;28;20021;-67
2023/02/16 07:33:08;;;;;;;32.30;10.73;;;;;;;;;;5029197;28;20465;-67
2023/02/16 07:35:34;;;;;;;29.80;10.33;;;;;;;;;;5031903;28;20025;-67
2023/02/16 07:37:59;;;;;;;35.33;11.07;;;;;;;;;;5024987;28;20483;-68
2023/02/16 07:40:24;;;;;;;29.98;10.40;;;;;;;;;;5029472;28;20024;-68
2023/02/16 07:42:50;;;;;;;31.42;11.05;;;;;;;;;;5029002;28;20029;-66
2023/02/16 07:45:15;;;;;;;30.23;9.83;;;;;;;;;;5035452;28;20013;-66
2023/02/16 07:47:40;;;;;;;32.45;11.52;;;;;;;;;;5028618;28;20079;-67
2023/02/16 07:50:05;;;;;;;33.03;10.30;;;;;;;;;;5031834;28;20025;-67
2023/02/16 07:52:32;;;;;;;28.65;10.00;;;;;;;;;;5035615;28;20361;-66
2023/02/16 07:55:00;;;;;;;31.48;10.35;;;;;;;;;;5034241;28;20053;-66
2023/02/16 07:57:26;;;;;;;30.15;9.60;;;;;;;;;;5032402;28;20025;-66
2023/02/16 07:59:51;;;;;;;31.08;9.77;;;;;;;;;;5033653;28;20021;-66
2023/02/16 08:02:18;;;;;;;30.98;10.43;;;;;;;;;;5032999;28;20016;-66
2023/02/16 08:04:43;;;;;;;32.20;10.30;;;;;;;;;;5035669;28;20032;-68
2023/02/16 08:07:10;;;;;;;25.53;8.53;;;;;;;;;;5032360;28;20029;-68
2023/02/16 08:09:35;;;;;;;29.83;10.57;;;;;;;;;;5033395;28;20092;-67
2023/02/16 08:12:00;;;;;;;29.75;9.98;;;;;;;;;;5030499;28;20021;-67
2023/02/16 08:14:25;;;;;;;27.75;9.45;;;;;;;;;;5031102;28;20438;-67
2023/02/16 08:16:51;;;;;;;32.92;10.20;;;;;;;;;;5026758;28;20021;-66
2023/02/16 08:19:16;;;;;;;27.27;9.10;;;;;;;;;;5032041;28;20025;-66
2023/02/16 08:21:43;;;;;;;32.13;11.02;;;;;;;;;;5030185;28;20512;-66
2023/02/16 08:24:10;;;;;;;30.83;10.52;;;;;;;;;;5032003;28;20064;-67
2023/02/16 08:26:36;;;;;;;;;;;;;;;;;;5028810;28;20026;-67
2023/02/16 08:29:01;;;;;;;30.23;9.50;;;;;;;;;;5031545;28;20269;-68
2023/02/16 08:31:28;;;;;;;30.13;9.85;;;;;;;;;;5027756;28;20036;-67
2023/02/16 08:33:54;;;;;;;31.83;10.18;;;;;;;;;;5028648;28;20021;-67
2023/02/16 08:36:22;;;;;;;30.00;10.20;;;;;;;;;;5031824;28;20029;-67
2023/02/16 08:38:49;;;;;;;31.45;10.32;;;;;;;;;;5033249;28;20071;-67
2023/02/16 08:41:15;;;;;;;27.88;9.75;;;;;;;;;;5024097;28;20067;-67
2023/02/16 08:43:40;;;;;;;29.17;9.77;;;;;;;;;;5025613;28;20427;-68
2023/02/16 08:46:06;;;;;;;29.88;10.15;;;;;;;;;;5024547;28;20290;-67
2023/02/16 08:48:34;;;;;;;27.35;9.70;;;;;;;;;;5028745;28;20037;-67
2023/02/16 08:50:59;;;;;;;29.70;10.43;;;;;;;;;;5026308;28;20411;-69
2023/02/16 08:53:26;;;;;;;27.43;10.30;;;;;;;;;;5020732;28;20040;-66
2023/02/16 08:55:55;;;;;;;29.58;10.23;;;;;;;;;;5021271;28;20048;-68
2023/02/16 08:58:20;;;;;;;28.17;10.68;;;;;;;;;;5021138;28;20030;-68
2023/02/16 09:00:45;;;;;;;27.25;9.68;;;;;;;;;;5016510;28;20036;-67
2023/02/16 09:03:11;;;;;;;32.10;10.40;;;;;;;;;;5020985;28;20025;-67
2023/02/16 09:05:36;;;;;;;29.25;9.88;;;;;;;;;;5020409;28;20013;-67
2023/02/16 09:08:01;;;;;;;27.52;10.35;;;;;;;;;;5025037;28;20414;-68
2023/02/16 09:10:26;;;;;;;31.33;10.40;;;;;;;;;;5025932;28;20022;-70
2023/02/16 09:12:51;;;;;;;29.45;10.13;;;;;;;;;;5020906;28;20100;-68
2023/02/16 09:15:17;;;;;;;28.20;10.68;;;;;;;;;;5020851;28;20397;-68
2023/02/16 09:17:42;;;;;;;30.45;10.32;;;;;;;;;;5020646;28;20029;-68
2023/02/16 09:20:08;;;;;;;31.13;10.53;;;;;;;;;;5017240;28;20025;-67
2023/02/16 09:22:33;;;;;;;28.20;10.20;;;;;;;;;;5020106;28;20502;-68
2023/02/16 09:24:58;;;;;;;25.98;10.05;;;;;;;;;;5021094;28;20172;-70
2023/02/16 09:27:23;;;;;;;26.07;9.30;;;;;;;;;;5019754;28;20099;-67
2023/02/16 09:29:48;;;;;;;24.97;9.67;;;;;;;;;;5023029;28;20044;-69
2023/02/16 09:32:14;;;;;;;28.23;10.68;;;;;;;;;;5030279;28;20009;-67
2023/02/16 09:34:39;;;;;;;27.92;10.07;;;;;;;;;;5030112;28;20033;-67
2023/02/16 09:37:04;;;;;;;26.55;9.63;;;;;;;;;;5027452;28;20021;-70
2023/02/16 09:39:30;;;;;;;28.08;10.23;;;;;;;;;;5021962;28;20022;-66
2023/02/16 09:42:10;;;;;;;27.75;10.38;;;;;;;;;;5023643;28;20033;-68
2023/02/16 09:44:51;;;;;;;24.05;9.50;;;;;;;;;;5021012;28;20021;-68
2023/02/16 09:47:22;;;;;;;30.95;11.88;;;;;;;;;;5023260;28;20374;-67
2023/02/16 09:49:48;;;;;;;24.85;10.13;;;;;;;;;;5029550;28;20026;-68
2023/02/16 09:52:13;;;;;;;28.85;11.02;;;;;;;;;;5030673;28;20307;-67
2023/02/16 09:54:41;;;;;;;26.65;10.77;;;;;;;;;;5030321;28;20013;-66
2023/02/16 09:57:26;;;;;;;27.08;9.98;;;;;;;;;;5027480;28;20086;-67
2023/02/16 09:59:58;;;;;;;26.63;10.55;;;;;;;;;;5025246;28;20033;-68
2023/02/16 10:02:47;;;;;;;28.65;10.95;;;;;;;;;;5030347;28;20037;-68
2023/02/16 10:05:19;;;;;;;28.40;10.75;;;;;;;;;;5028807;28;20020;-68
2023/02/16 10:07:50;;;;;;;29.42;11.10;;;;;;;;;;5021012;28;20025;-69
2023/02/16 10:10:17;;;;;;;31.00;10.93;;;;;;;;;;5029379;28;20041;-68
2023/02/16 10:12:47;;;;;;;28.95;11.25;;;;;;;;;;5027757;28;20029;-69
2023/02/16 10:15:15;;;;;;;27.23;10.77;;;;;;;;;;5027464;28;20057;-68
2023/02/16 10:17:43;;;;;;;31.63;10.75;;;;;;;;;;5029998;28;20040;-68
2023/02/16 10:20:12;;;;;;;29.90;11.13;;;;;;;;;;5027681;28;20021;-67
2023/02/16 10:22:56;;;;;;;29.30;10.70;;;;;;;;;;5028131;28;20033;-68
2023/02/16 10:25:44;;;;;;;27.98;10.90;;;;;;;;;;5022222;28;20049;-67
2023/02/16 10:28:17;;;;;;;28.33;10.90;;;;;;;;;;5023550;28;20513;-67
2023/02/16 10:30:42;;;;;;;;;;;;;;;;;;5026204;28;20490;-68
2023/02/16 10:33:15;;;;;;;27.00;10.10;;;;;;;;;;5029418;28;20473;-66
2023/02/16 10:35:44;;;;;;;27.27;10.15;;;;;;;;;;5023743;28;20052;-68
2023/02/16 10:38:14;;;;;;;28.40;11.60;;;;;;;;;;5020988;28;20493;-68
2023/02/16 10:40:45;;;;;;;29.98;11.00;;;;;;;;;;5023087;28;20033;-68
2023/02/16 10:43:15;;;;;;;29.48;11.43;;;;;;;;;;5027338;28;20025;-67
2023/02/16 10:45:55;;;;;;;28.85;10.90;;;;;;;;;;5018388;28;20496;-68
2023/02/16 10:48:21;;;;;;;28.33;11.23;;;;;;;;;;5019580;28;20745;-68
2023/02/16 10:51:16;;;;;;;31.48;11.15;;;;;;;;;;5024519;28;20029;-68
2023/02/16 10:53:51;;;;;;;28.00;10.35;;;;;;;;;;5016086;28;20041;-68
2023/02/16 10:56:16;;;;;;;25.45;10.27;;;;;;;;;;5023157;28;20496;-68
2023/02/16 10:58:41;;;;;;;27.83;10.77;;;;;;;;;;5028387;28;20555;-66
2023/02/16 11:01:15;;;;;;;29.75;10.70;;;;;;;;;;5027542;28;20041;-69
2023/02/16 11:03:45;;;;;;;28.05;11.15;;;;;;;;;;5028871;28;20017;-69
2023/02/16 11:06:15;;;;;;;27.63;10.85;;;;;;;;;;5029523;28;20014;-66
2023/02/16 11:08:48;;;;;;;27.70;11.57;;;;;;;;;;5029210;28;20021;-66
2023/02/16 11:11:14;;;;;;;27.50;10.98;;;;;;;;;;5030088;28;20049;-66
2023/02/16 11:13:40;;;;;;;28.70;11.00;;;;;;;;;;5023347;28;20059;-66
2023/02/16 11:16:09;;;;;;;34.22;12.00;;;;;;;;;;5028043;28;20030;-66
2023/02/16 11:18:36;;;;;;;28.40;11.13;;;;;;;;;;5027640;28;20041;-66
2023/02/16 11:21:02;;;;;;;27.73;11.43;;;;;;;;;;5027792;28;20025;-67
2023/02/16 11:23:28;;;;;;;28.23;10.77;;;;;;;;;;5030515;28;20021;-69
2023/02/16 11:26:09;;;;;;;25.45;10.35;;;;;;;;;;5032875;28;20487;-68
2023/02/16 11:28:38;;;;;;;26.35;10.88;;;;;;;;;;5031534;28;20155;-68
2023/02/16 11:31:03;;;;;;;26.98;11.05;;;;;;;;;;5028483;28;20049;-68
2023/02/16 11:33:29;;;;;;;30.10;11.60;;;;;;;;;;5026409;28;20485;-68
2023/02/16 11:35:54;;;;;;;28.42;11.15;;;;;;;;;;5027297;28;20032;-68
2023/02/16 11:38:26;;;;;;;26.33;11.20;;;;;;;;;;5028114;28;20040;-69
2023/02/16 11:40:52;;;;;;;29.05;11.45;;;;;;;;;;5024811;28;20060;-69
2023/02/16 11:43:17;;;;;;;28.00;11.85;;;;;;;;;;5027277;28;20030;-67
2023/02/16 11:45:42;;;;;;;29.20;12.25;;;;;;;;;;5027974;28;20036;-68
2023/02/16 11:48:12;;;;;;;31.83;12.43;;;;;;;;;;5023649;28;20146;-67
2023/02/16 11:50:38;;;;;;;27.63;11.30;;;;;;;;;;5031071;28;20037;-68
2023/02/16 11:53:10;;;;;;;31.38;12.43;;;;;;;;;;5029689;28;20029;-68
2023/02/16 11:55:40;;;;;;;29.65;11.70;;;;;;;;;;5024607;28;20028;-68
2023/02/16 11:58:24;;;;;;;29.35;12.32;;;;;;;;;;5030211;28;20519;-67
2023/02/16 12:01:02;;;;;;;30.70;12.07;;;;;;;;;;5031069;28;20057;-68
2023/02/16 12:03:32;;;;;;;31.27;12.60;;;;;;;;;;5031747;28;20075;-67
2023/02/16 12:06:03;;;;;;;28.90;12.20;;;;;;;;;;5030934;28;20031;-67
2023/02/16 12:08:29;;;;;;;25.60;11.13;;;;;;;;;;5031675;28;20080;-68
2023/02/16 12:11:04;;;;;;;30.70;12.38;;;;;;;;;;5029503;28;20558;-68
2023/02/16 12:13:42;;;;;;;26.10;11.07;;;;;;;;;;5025386;28;20044;-68
2023/02/16 12:16:18;;;;;;;26.50;10.70;;;;;;;;;;5017528;28;20075;-68
2023/02/16 12:19:01;;;;;;;27.48;11.38;;;;;;;;;;5022642;28;20120;-67
2023/02/16 12:21:45;;;;;;;30.35;11.45;;;;;;;;;;5022313;28;20025;-67
2023/02/16 12:24:13;;;;;;;30.65;11.40;;;;;;;;;;5020201;28;20034;-68
2023/02/16 12:26:43;;;;;;;26.75;11.98;;;;;;;;;;5017197;28;20029;-68
2023/02/16 12:29:19;;;;;;;26.25;11.43;;;;;;;;;;5021990;28;20032;-66
2023/02/16 12:32:06;;;;;;;27.45;11.13;;;;;;;;;;5020269;28;20025;-68
2023/02/16 12:34:52;;;;;;;28.83;12.98;;;;;;;;;;5022423;28;20163;-67
2023/02/16 12:37:36;;;;;;;25.48;11.52;;;;;;;;;;5018939;28;20037;-67
2023/02/16 12:40:20;;;;;;;27.90;12.15;;;;;;;;;;5021186;28;20029;-69
2023/02/16 12:42:45;;;;;;;30.00;12.57;;;;;;;;;;5020628;28;20025;-68
2023/02/16 12:45:16;;;;;;;27.63;12.17;;;;;;;;;;5022111;28;20025;-67
2023/02/16 12:47:44;;;;;;;30.35;12.45;;;;;;;;;;5021947;28;20021;-69
2023/02/16 12:50:20;;;;;;;27.88;11.65;;;;;;;;;;5022139;28;20029;-66
2023/02/16 12:52:48;;;;;;;28.83;12.48;;;;;;;;;;5017526;28;20021;-67
2023/02/16 12:55:25;;;;;;;33.20;13.07;;;;;;;;;;5026653;28;20299;-66
2023/02/16 12:57:56;;;;;;;28.20;12.07;;;;;;;;;;5031464;28;20086;-67
2023/02/16 13:00:32;;;;;;;27.42;12.60;;;;;;;;;;5021324;28;20036;-68
2023/02/16 13:03:27;;;;;;;29.55;13.13;;;;;;;;;;5023356;28;20022;-67
2023/02/16 13:06:25;;;;;;;27.35;12.07;;;;;;;;;;5020364;28;20036;-69
2023/02/16 13:09:20;;;;;;;30.20;12.18;;;;;;;;;;5012104;28;20092;-69
2023/02/16 13:11:48;;;;;;;25.55;12.02;;;;;;;;;;5011432;28;20034;-68
2023/02/16 13:14:17;;;;;;;29.30;12.90;;;;;;;;;;5030754;28;20020;-66
2023/02/16 13:16:48;;;;;;;33.30;13.27;;;;;;;;;;5034870;28;20561;-69
2023/02/16 13:19:14;;;;;;;29.45;12.70;;;;;;;;;;5030586;28;20024;-67
2023/02/16 13:21:54;;;;;;;29.30;12.73;;;;;;;;;;5025859;28;20037;-67
2023/02/16 13:24:35;;;;;;;32.63;12.80;;;;;;;;;;5025075;28;20023;-67
2023/02/16 13:27:03;;;;;;;30.25;12.63;;;;;;;;;;5018537;28;20139;-68
2023/02/16 13:29:46;;;;;;;28.25;12.13;;;;;;;;;;5025778;28;20029;-68
2023/02/16 13:32:17;;;;;;;29.13;12.70;;;;;;;;;;5024614;28;20029;-68
2023/02/16 13:34:48;;;;;;;30.48;12.80;;;;;;;;;;5034663;28;20052;-69
2023/02/16 13:37:13;;;;;;;31.25;12.93;;;;;;;;;;5027390;28;20021;-66
2023/02/16 13:39:51;;;;;;;29.08;13.10;;;;;;;;;;5028768;28;20088;-67
2023/02/16 13:42:28;;;;;;;30.88;12.90;;;;;;;;;;5024540;28;20045;-67
2023/02/16 13:44:55;;;;;;;30.60;13.13;;;;;;;;;;5024056;28;20029;-67
2023/02/16 13:47:25;;;;;;;31.02;13.45;;;;;;;;;;5028891;28;20022;-67
2023/02/16 13:49:55;;;;;;;34.58;13.82;;;;;;;;;;5030553;28;20036;-67
2023/02/16 13:52:38;;;;;;;31.10;13.13;;;;;;;;;;5022785;28;20022;-69
2023/02/16 13:55:05;;;;;;;29.40;12.57;;;;;;;;;;5028956;28;20014;-70
2023/02/16 13:57:42;;;;;;;33.08;14.00;;;;;;;;;;5029455;28;20038;-68
2023/02/16 14:00:27;;;;;;;29.83;12.88;;;;;;;;;;5025541;28;20026;-66
2023/02/16 14:02:54;;;;;;;30.38;12.63;;;;;;;;;;5022801;28;20437;-67
2023/02/16 14:05:49;;;;;;;29.25;13.55;;;;;;;;;;5029813;28;20017;-66
2023/02/16 14:08:15;;;;;;;29.60;12.35;;;;;;;;;;5017830;28;20038;-65
2023/02/16 14:10:51;;;;;;;32.22;12.98;;;;;;;;;;5031218;28;20017;-66
2023/02/16 14:13:17;;;;;;;32.13;13.75;;;;;;;;;;5033531;28;20022;-66
2023/02/16 14:15:50;;;;;;;30.73;13.07;;;;;;;;;;5029092;28;20080;-68
2023/02/16 14:18:51;;;;;;;30.50;12.77;;;;;;;;;;5024052;28;20036;-67
2023/02/16 14:21:19;;;;;;;29.27;13.07;;;;;;;;;;4997358;28;20080;-66
2023/02/16 14:23:53;;;;;;;32.05;13.48;;;;;;;;;;5013479;28;20104;-68
2023/02/16 14:26:18;;;;;;;30.83;13.18;;;;;;;;;;5019818;28;20497;-66
2023/02/16 14:28:54;;;;;;;33.15;13.57;;;;;;;;;;5019311;28;20040;-68
2023/02/16 14:31:21;;;;;;;33.08;13.30;;;;;;;;;;5018177;28;20449;-68
2023/02/16 14:34:04;;;;;;;34.83;13.50;;;;;;;;;;5019490;28;20051;-68
2023/02/16 14:36:30;;;;;;;29.65;13.82;;;;;;;;;;5015729;28;20025;-66
2023/02/16 14:38:57;;;;;;;32.55;13.60;;;;;;;;;;5021752;28;20112;-66
2023/02/16 14:41:22;;;;;;;31.58;13.32;;;;;;;;;;5024635;28;20104;-70
2023/02/16 14:43:48;;;;;;;33.03;13.68;;;;;;;;;;5027782;28;20105;-66
2023/02/16 14:46:32;;;;;;;30.00;12.48;;;;;;;;;;5023625;28;20083;-65
2023/02/16 14:49:22;;;;;;;29.75;12.90;;;;;;;;;;5023706;28;20083;-67
2023/02/16 14:51:54;;;;;;;33.80;13.88;;;;;;;;;;5027924;28;20383;-67
2023/02/16 14:54:22;;;;;;;30.00;12.68;;;;;;;;;;5019429;28;20282;-68
2023/02/16 14:56:48;;;;;;;31.30;13.88;;;;;;;;;;5019863;28;20030;-66
2023/02/16 14:59:29;;;;;;;31.83;13.20;;;;;;;;;;5025507;28;20017;-66
2023/02/16 15:01:54;;;;;;;32.33;13.70;;;;;;;;;;5025941;28;20025;-68
2023/02/16 15:04:30;;;;;;;32.03;13.18;;;;;;;;;;5026210;28;20017;-68
2023/02/16 15:06:56;;;;;;;30.60;13.13;;;;;;;;;;5018376;28;20099;-67
2023/02/16 15:09:24;;;;;;;31.85;13.75;;;;;;;;;;5012513;28;20026;-66